createdAt,value
2023-07-19T00:00:29.343Z,66
2023-07-19T00:01:34.361Z,66
2023-07-19T00:02:39.037Z,66
2023-07-19T00:03:43.850Z,66
2023-07-19T00:04:48.778Z,66
2023-07-19T00:05:53.512Z,66
2023-07-19T00:06:58.373Z,66
2023-07-19T00:08:03.138Z,66
2023-07-19T00:09:08.127Z,66
2023-07-19T00:10:13.038Z,66
2023-07-19T00:11:18.203Z,66
2023-07-19T00:12:24.292Z,65
2023-07-19T00:13:28.950Z,65
2023-07-19T00:14:33.755Z,65
2023-07-19T00:15:38.478Z,65
2023-07-19T00:16:43.305Z,65
2023-07-19T00:17:48.044Z,65
2023-07-19T00:18:59.801Z,65
2023-07-19T00:19:58.660Z,65
2023-07-19T00:21:03.377Z,65
2023-07-19T00:22:08.216Z,65
2023-07-19T00:23:13.169Z,64
2023-07-19T00:24:17.647Z,65
2023-07-19T00:25:22.539Z,65
2023-07-19T00:26:27.202Z,65
2023-07-19T00:27:31.972Z,65
2023-07-19T00:28:36.801Z,65
2023-07-19T00:29:41.452Z,65
2023-07-19T00:30:46.300Z,65
2023-07-19T00:31:51.016Z,65
2023-07-19T00:32:55.902Z,64
2023-07-19T00:34:00.774Z,65
2023-07-19T00:35:05.586Z,65
2023-07-19T00:36:10.887Z,65
2023-07-19T00:37:15.725Z,64
2023-07-19T00:38:20.488Z,65
2023-07-19T00:39:25.185Z,65
2023-07-19T00:40:30.035Z,64
2023-07-19T00:41:34.804Z,64
2023-07-19T00:42:39.477Z,64
2023-07-19T00:43:44.256Z,64
2023-07-19T00:44:48.974Z,64
2023-07-19T00:45:53.870Z,65
2023-07-19T00:46:58.623Z,65
2023-07-19T00:48:03.987Z,65
2023-07-19T00:49:08.817Z,65
2023-07-19T00:50:13.729Z,65
2023-07-19T00:51:18.590Z,65
2023-07-19T00:52:23.196Z,65
2023-07-19T00:53:27.970Z,64
2023-07-19T00:54:32.729Z,65
2023-07-19T00:55:37.549Z,65
2023-07-19T00:56:42.227Z,64
2023-07-19T00:57:48.081Z,65
2023-07-19T00:58:52.816Z,65
2023-07-19T00:59:57.579Z,65
2023-07-19T01:01:02.288Z,65
2023-07-19T01:02:07.269Z,65
2023-07-19T01:03:12.145Z,65
2023-07-19T01:04:16.889Z,65
2023-07-19T01:05:21.713Z,65
2023-07-19T01:06:26.418Z,65
2023-07-19T01:07:31.247Z,65
2023-07-19T01:08:36.004Z,65
2023-07-19T01:09:40.781Z,65
2023-07-19T01:10:45.549Z,65
2023-07-19T01:11:50.313Z,65
2023-07-19T01:12:55.094Z,65
2023-07-19T01:14:07.741Z,65
2023-07-19T01:15:12.477Z,65
2023-07-19T01:16:17.304Z,65
2023-07-19T01:17:22.133Z,65
2023-07-19T01:18:26.893Z,65
2023-07-19T01:19:32.629Z,66
2023-07-19T01:20:38.208Z,66
2023-07-19T01:21:44.015Z,66
2023-07-19T01:22:48.772Z,66
2023-07-19T01:23:53.578Z,66
2023-07-19T01:24:59.371Z,66
2023-07-19T01:26:04.029Z,66
2023-07-19T01:27:17.209Z,66
2023-07-19T01:28:14.095Z,66
2023-07-19T01:29:19.104Z,65
2023-07-19T01:30:23.857Z,66
2023-07-19T01:31:29.835Z,66
2023-07-19T01:32:34.452Z,66
2023-07-19T01:33:39.266Z,65
2023-07-19T01:34:43.966Z,65
2023-07-19T01:35:48.743Z,66
2023-07-19T01:36:53.597Z,65
2023-07-19T01:37:58.258Z,66
2023-07-19T01:39:03.045Z,66
2023-07-19T01:40:07.833Z,66
2023-07-19T01:41:12.624Z,65
2023-07-19T01:42:17.341Z,65
2023-07-19T01:43:22.172Z,65
2023-07-19T01:44:26.961Z,65
2023-07-19T01:45:31.938Z,65
2023-07-19T01:46:37.872Z,66
2023-07-19T01:47:43.735Z,66
2023-07-19T01:48:48.526Z,66
2023-07-19T01:49:53.314Z,66
2023-07-19T01:50:58.222Z,66
2023-07-19T01:52:03.111Z,66
2023-07-19T01:53:08.186Z,66
2023-07-19T01:54:13.211Z,66
2023-07-19T01:55:17.940Z,66
2023-07-19T01:56:22.701Z,66
2023-07-19T01:57:27.835Z,67
2023-07-19T01:58:37.884Z,66
2023-07-19T01:59:43.592Z,67
2023-07-19T02:00:48.480Z,67
2023-07-19T02:01:53.221Z,67
2023-07-19T02:02:57.926Z,68
2023-07-19T02:04:02.853Z,68
2023-07-19T02:05:09.785Z,68
2023-07-19T02:06:14.530Z,68
2023-07-19T02:07:19.416Z,68
2023-07-19T02:08:25.095Z,68
2023-07-19T02:09:29.895Z,68
2023-07-19T02:10:34.780Z,68
2023-07-19T02:11:39.435Z,67
2023-07-19T02:12:44.201Z,67
2023-07-19T02:13:49.122Z,67
2023-07-19T02:14:53.936Z,67
2023-07-19T02:15:58.756Z,67
2023-07-19T02:17:03.541Z,67
2023-07-19T02:18:11.165Z,67
2023-07-19T02:19:16.118Z,67
2023-07-19T02:20:21.308Z,67
2023-07-19T02:21:26.123Z,67
2023-07-19T02:22:30.932Z,67
2023-07-19T02:23:35.795Z,67
2023-07-19T02:24:40.470Z,67
2023-07-19T02:25:45.221Z,67
2023-07-19T02:26:52.800Z,68
2023-07-19T02:27:57.608Z,68
2023-07-19T02:29:02.312Z,68
2023-07-19T02:30:07.124Z,68
2023-07-19T02:31:12.138Z,68
2023-07-19T02:32:17.915Z,68
2023-07-19T02:33:22.862Z,68
2023-07-19T02:34:27.467Z,68
2023-07-19T02:35:32.196Z,68
2023-07-19T02:36:37.088Z,68
2023-07-19T02:37:41.787Z,68
2023-07-19T02:38:46.555Z,68
2023-07-19T02:39:51.348Z,68
2023-07-19T02:40:56.050Z,68
2023-07-19T02:42:00.986Z,68
2023-07-19T02:43:05.932Z,68
2023-07-19T02:44:10.684Z,68
2023-07-19T02:45:15.423Z,68
2023-07-19T02:46:20.208Z,69
2023-07-19T02:47:25.989Z,69
2023-07-19T02:48:30.808Z,69
2023-07-19T02:49:36.681Z,69
2023-07-19T02:50:40.247Z,69
2023-07-19T02:51:47.867Z,69
2023-07-19T02:52:52.659Z,69
2023-07-19T02:53:57.377Z,69
2023-07-19T02:55:02.466Z,69
2023-07-19T02:56:07.560Z,69
2023-07-19T02:57:12.160Z,69
2023-07-19T02:58:16.955Z,69
2023-07-19T02:59:21.788Z,69
2023-07-19T03:00:27.595Z,69
2023-07-19T03:01:32.341Z,70
2023-07-19T03:02:37.195Z,69
2023-07-19T03:03:41.930Z,70
2023-07-19T03:04:46.868Z,70
2023-07-19T03:05:52.748Z,70
2023-07-19T03:07:00.429Z,70
2023-07-19T03:08:05.422Z,70
2023-07-19T03:09:10.305Z,70
2023-07-19T03:10:15.698Z,70
2023-07-19T03:11:20.533Z,70
2023-07-19T03:12:25.143Z,70
2023-07-19T03:13:29.857Z,70
2023-07-19T03:14:34.634Z,70
2023-07-19T03:15:39.458Z,70
2023-07-19T03:16:44.242Z,70
2023-07-19T03:17:49.030Z,70
2023-07-19T03:18:53.712Z,70
2023-07-19T03:19:59.570Z,70
2023-07-19T03:21:04.512Z,70
2023-07-19T03:22:09.302Z,70
2023-07-19T03:23:14.113Z,70
2023-07-19T03:24:18.937Z,70
2023-07-19T03:25:23.607Z,70
2023-07-19T03:26:28.391Z,70
2023-07-19T03:27:33.193Z,70
2023-07-19T03:28:37.865Z,69
2023-07-19T03:29:42.665Z,69
2023-07-19T03:30:47.486Z,69
2023-07-19T03:31:52.230Z,69
2023-07-19T03:32:57.148Z,70
2023-07-19T03:34:02.887Z,70
2023-07-19T03:35:07.538Z,70
2023-07-19T03:36:12.357Z,70
2023-07-19T03:37:17.213Z,70
2023-07-19T03:38:21.897Z,70
2023-07-19T03:39:27.947Z,70
2023-07-19T03:40:33.770Z,70
2023-07-19T03:41:38.474Z,70
2023-07-19T03:42:43.252Z,70
2023-07-19T03:43:48.161Z,70
2023-07-19T03:44:53.028Z,70
2023-07-19T03:45:57.870Z,70
2023-07-19T03:47:02.587Z,70
2023-07-19T03:48:07.396Z,70
2023-07-19T03:49:12.533Z,70
2023-07-19T03:50:18.671Z,70
2023-07-19T03:51:24.143Z,70
2023-07-19T03:52:28.517Z,70
2023-07-19T03:53:33.227Z,70
2023-07-19T03:54:38.308Z,70
2023-07-19T03:55:44.069Z,70
2023-07-19T03:56:48.843Z,70
2023-07-19T03:57:53.910Z,70
2023-07-19T03:58:58.728Z,71
2023-07-19T04:00:03.761Z,71
2023-07-19T04:01:08.970Z,70
2023-07-19T04:02:15.375Z,70
2023-07-19T04:03:20.053Z,70
2023-07-19T04:04:24.863Z,70
2023-07-19T04:05:29.555Z,70
2023-07-19T04:06:34.351Z,71
2023-07-19T04:07:39.097Z,71
2023-07-19T04:08:43.977Z,70
2023-07-19T04:09:49.643Z,70
2023-07-19T04:10:55.421Z,70
2023-07-19T04:12:00.652Z,70
2023-07-19T04:13:05.472Z,70
2023-07-19T04:14:10.246Z,70
2023-07-19T04:15:15.127Z,70
2023-07-19T04:16:20.820Z,70
2023-07-19T04:17:26.714Z,70
2023-07-19T04:18:31.882Z,70
2023-07-19T04:19:36.839Z,70
2023-07-19T04:20:41.657Z,70
2023-07-19T04:21:46.668Z,70
2023-07-19T04:22:51.519Z,70
2023-07-19T04:23:58.430Z,70
2023-07-19T04:25:01.277Z,70
2023-07-19T04:26:06.058Z,70
2023-07-19T04:27:11.869Z,70
2023-07-19T04:28:16.642Z,69
2023-07-19T04:29:22.359Z,69
2023-07-19T04:30:27.106Z,68
2023-07-19T04:31:32.109Z,68
2023-07-19T04:32:38.079Z,68
2023-07-19T04:33:42.804Z,68
2023-07-19T04:34:47.576Z,68
2023-07-19T04:35:52.477Z,68
2023-07-19T04:36:57.680Z,68
2023-07-19T04:38:02.724Z,68
2023-07-19T04:39:08.849Z,68
2023-07-19T04:40:13.638Z,68
2023-07-19T04:41:20.762Z,69
2023-07-19T04:42:25.221Z,69
2023-07-19T04:43:29.976Z,69
2023-07-19T04:44:34.993Z,69
2023-07-19T04:45:39.792Z,69
2023-07-19T04:46:47.371Z,68
2023-07-19T04:47:52.165Z,68
2023-07-19T04:48:56.885Z,68
2023-07-19T04:50:01.760Z,68
2023-07-19T04:51:06.461Z,69
2023-07-19T04:52:11.217Z,69
2023-07-19T04:53:16.214Z,69
2023-07-19T04:54:22.069Z,69
2023-07-19T04:55:26.777Z,70
2023-07-19T04:56:31.583Z,70
2023-07-19T04:57:36.680Z,70
2023-07-19T04:58:41.361Z,71
2023-07-19T04:59:46.127Z,70
2023-07-19T05:00:50.944Z,70
2023-07-19T05:01:55.882Z,70
2023-07-19T05:03:01.762Z,70
2023-07-19T05:04:06.900Z,69
2023-07-19T05:05:11.830Z,69
2023-07-19T05:06:16.502Z,69
2023-07-19T05:07:21.411Z,69
2023-07-19T05:08:26.332Z,69
2023-07-19T05:09:31.072Z,68
2023-07-19T05:10:35.886Z,68
2023-07-19T05:11:40.608Z,68
2023-07-19T05:12:45.383Z,69
2023-07-19T05:13:51.812Z,69
2023-07-19T05:14:55.955Z,69
2023-07-19T05:16:00.906Z,69
2023-07-19T05:17:05.865Z,69
2023-07-19T05:18:10.534Z,68
2023-07-19T05:19:15.579Z,68
2023-07-19T05:20:20.264Z,68
2023-07-19T05:21:25.063Z,68
2023-07-19T05:22:29.834Z,68
2023-07-19T05:23:34.609Z,68
2023-07-19T05:24:39.589Z,69
2023-07-19T05:25:44.488Z,69
2023-07-19T05:26:49.249Z,69
2023-07-19T05:27:53.881Z,68
2023-07-19T05:28:58.766Z,68
2023-07-19T05:30:03.443Z,68
2023-07-19T05:31:08.721Z,68
2023-07-19T05:32:13.589Z,68
2023-07-19T05:33:18.272Z,68
2023-07-19T05:34:23.858Z,67
2023-07-19T05:35:29.875Z,67
2023-07-19T05:36:34.568Z,68
2023-07-19T05:37:39.373Z,68
2023-07-19T05:38:44.380Z,68
2023-07-19T05:39:51.656Z,67
2023-07-19T05:40:56.536Z,67
2023-07-19T05:42:04.181Z,67
2023-07-19T05:43:09.183Z,66
2023-07-19T05:44:13.925Z,66
2023-07-19T05:45:18.688Z,67
2023-07-19T05:46:23.624Z,67
2023-07-19T05:47:30.784Z,67
2023-07-19T05:48:34.243Z,67
2023-07-19T05:49:39.077Z,67
2023-07-19T05:50:43.810Z,67
2023-07-19T05:51:48.597Z,67
2023-07-19T05:52:53.461Z,67
2023-07-19T05:53:58.362Z,67
2023-07-19T05:55:05.628Z,67
2023-07-19T05:56:08.187Z,67
2023-07-19T05:57:13.208Z,67
2023-07-19T05:58:17.975Z,67
2023-07-19T05:59:25.984Z,67
2023-07-19T06:00:30.870Z,67
2023-07-19T06:01:35.841Z,67
2023-07-19T06:02:53.211Z,67
2023-07-19T06:03:45.149Z,67
2023-07-19T06:04:50.081Z,67
2023-07-19T06:05:54.714Z,67
2023-07-19T06:06:59.455Z,67
2023-07-19T06:08:14.264Z,66
2023-07-19T06:09:09.194Z,66
2023-07-19T06:10:13.974Z,67
2023-07-19T06:11:19.260Z,66
2023-07-19T06:12:23.582Z,66
2023-07-19T06:13:29.323Z,66
2023-07-19T06:14:34.258Z,67
2023-07-19T06:15:39.282Z,66
2023-07-19T06:16:45.510Z,66
2023-07-19T06:17:50.320Z,65
2023-07-19T06:18:57.989Z,65
2023-07-19T06:20:02.856Z,65
2023-07-19T06:21:08.876Z,64
2023-07-19T06:22:13.726Z,64
2023-07-19T06:23:20.743Z,64
2023-07-19T06:24:25.519Z,64
2023-07-19T06:25:30.548Z,64
2023-07-19T06:26:35.501Z,64
2023-07-19T06:27:40.316Z,65
2023-07-19T06:28:45.031Z,63
2023-07-19T06:29:50.087Z,63
2023-07-19T06:30:54.900Z,62
2023-07-19T06:32:00.949Z,62
2023-07-19T06:33:06.614Z,63
2023-07-19T06:34:10.442Z,62
2023-07-19T06:35:15.148Z,61
2023-07-19T06:36:19.920Z,61
2023-07-19T06:37:24.842Z,62
2023-07-19T06:38:29.788Z,62
2023-07-19T06:39:35.517Z,61
2023-07-19T06:40:40.360Z,61
2023-07-19T06:41:47.733Z,61
2023-07-19T06:42:52.662Z,61
2023-07-19T06:43:57.409Z,61
2023-07-19T06:45:02.216Z,61
2023-07-19T06:46:08.923Z,61
2023-07-19T06:47:12.047Z,61
2023-07-19T06:48:16.747Z,61
2023-07-19T06:49:22.573Z,61
2023-07-19T06:50:27.486Z,61
2023-07-19T06:51:32.420Z,61
2023-07-19T06:52:37.097Z,60
2023-07-19T06:53:41.896Z,61
2023-07-19T06:54:46.640Z,61
2023-07-19T06:55:52.453Z,61
2023-07-19T06:56:57.275Z,60
2023-07-19T06:58:03.031Z,60
2023-07-19T06:59:07.716Z,60
2023-07-19T07:00:12.582Z,60
2023-07-19T07:01:17.566Z,60
2023-07-19T07:02:22.343Z,60
2023-07-19T07:03:27.173Z,59
2023-07-19T07:04:31.863Z,59
2023-07-19T07:05:36.704Z,60
2023-07-19T07:06:41.422Z,60
2023-07-19T07:07:46.133Z,61
2023-07-19T07:08:51.254Z,60
2023-07-19T07:09:55.963Z,60
2023-07-19T07:11:00.729Z,60
2023-07-19T07:12:05.533Z,60
2023-07-19T07:13:10.748Z,59
2023-07-19T07:14:16.562Z,59
2023-07-19T07:15:21.434Z,60
2023-07-19T07:16:26.382Z,59
2023-07-19T07:17:31.311Z,59
2023-07-19T07:18:37.365Z,58
2023-07-19T07:19:42.201Z,58
2023-07-19T07:20:47.956Z,58
2023-07-19T07:21:53.656Z,58
2023-07-19T07:22:58.530Z,58
2023-07-19T07:24:03.326Z,58
2023-07-19T07:25:08.440Z,57
2023-07-19T07:26:13.345Z,56
2023-07-19T07:27:18.080Z,56
2023-07-19T07:28:22.962Z,56
2023-07-19T07:29:27.601Z,56
2023-07-19T07:30:32.403Z,58
2023-07-19T07:31:37.437Z,57
2023-07-19T07:32:42.418Z,57
2023-07-19T07:33:47.261Z,58
2023-07-19T07:34:52.089Z,57
2023-07-19T07:35:57.015Z,58
2023-07-19T07:37:02.025Z,57
2023-07-19T07:38:07.113Z,56
2023-07-19T07:39:12.012Z,56
2023-07-19T07:40:17.081Z,57
2023-07-19T07:41:22.551Z,58
2023-07-19T07:42:27.177Z,58
2023-07-19T07:43:32.079Z,56
2023-07-19T07:44:37.079Z,56
2023-07-19T07:45:42.240Z,56
2023-07-19T07:46:47.264Z,56
2023-07-19T07:47:53.371Z,56
2023-07-19T07:48:58.089Z,56
2023-07-19T07:50:02.930Z,56
2023-07-19T07:51:07.954Z,56
2023-07-19T07:52:12.686Z,57
2023-07-19T07:53:17.577Z,57
2023-07-19T07:54:22.486Z,56
2023-07-19T07:55:27.249Z,57
2023-07-19T07:56:32.058Z,55
2023-07-19T07:57:36.746Z,56
2023-07-19T07:58:41.543Z,55
2023-07-19T07:59:46.251Z,56
2023-07-19T08:00:52.154Z,55
2023-07-19T08:01:57.033Z,57
2023-07-19T08:03:02.060Z,57
2023-07-19T08:04:06.948Z,57
2023-07-19T08:05:11.672Z,57
2023-07-19T08:06:16.418Z,56
2023-07-19T08:07:21.296Z,55
2023-07-19T08:08:26.097Z,56
2023-07-19T08:09:31.056Z,55
2023-07-19T08:10:35.769Z,55
2023-07-19T08:11:40.713Z,56
2023-07-19T08:12:45.536Z,57
2023-07-19T08:13:50.354Z,57
2023-07-19T08:14:55.170Z,56
2023-07-19T08:15:59.882Z,57
2023-07-19T08:17:04.709Z,56
2023-07-19T08:18:09.451Z,55
2023-07-19T08:19:14.136Z,55
2023-07-19T08:20:18.936Z,54
2023-07-19T08:21:34.619Z,54
2023-07-19T08:22:28.507Z,54
2023-07-19T08:23:34.207Z,54
2023-07-19T08:24:39.046Z,54
2023-07-19T08:25:44.045Z,54
2023-07-19T08:26:49.010Z,55
2023-07-19T08:27:53.860Z,55
2023-07-19T08:28:58.688Z,54
2023-07-19T08:30:03.503Z,55
2023-07-19T08:31:11.525Z,54
2023-07-19T08:32:17.291Z,54
2023-07-19T08:33:22.047Z,55
2023-07-19T08:34:26.968Z,55
2023-07-19T08:35:31.812Z,54
2023-07-19T08:36:36.673Z,54
2023-07-19T08:37:41.341Z,54
2023-07-19T08:38:47.453Z,53
2023-07-19T08:39:52.189Z,53
2023-07-19T08:40:56.976Z,53
2023-07-19T08:42:04.592Z,52
2023-07-19T08:43:09.630Z,53
2023-07-19T08:44:14.589Z,53
2023-07-19T08:45:19.304Z,52
2023-07-19T08:46:25.393Z,53
2023-07-19T08:47:31.273Z,52
2023-07-19T08:48:35.934Z,52
2023-07-19T08:49:40.755Z,53
2023-07-19T08:50:46.142Z,52
2023-07-19T08:51:50.759Z,52
2023-07-19T08:52:55.602Z,53
2023-07-19T08:54:00.321Z,52
2023-07-19T08:55:05.040Z,51
2023-07-19T08:56:09.873Z,51
2023-07-19T08:57:17.286Z,51
2023-07-19T08:58:23.685Z,51
2023-07-19T08:59:29.613Z,52
2023-07-19T09:00:34.287Z,52
2023-07-19T09:01:39.074Z,51
2023-07-19T09:02:44.316Z,50
2023-07-19T09:03:49.249Z,50
2023-07-19T09:04:54.073Z,50
2023-07-19T09:06:09.173Z,50
2023-07-19T09:07:13.930Z,50
2023-07-19T09:08:18.693Z,50
2023-07-19T09:09:23.495Z,51
2023-07-19T09:10:29.221Z,51
2023-07-19T09:11:34.096Z,50
2023-07-19T09:12:38.834Z,50
2023-07-19T09:13:45.993Z,51
2023-07-19T09:14:50.874Z,51
2023-07-19T09:15:55.691Z,51
2023-07-19T09:17:01.602Z,51
2023-07-19T09:18:11.145Z,50
2023-07-19T09:19:15.862Z,50
2023-07-19T09:20:20.653Z,51
2023-07-19T09:21:26.544Z,50
2023-07-19T09:22:41.725Z,50
2023-07-19T09:23:46.474Z,51
2023-07-19T09:24:51.192Z,51
2023-07-19T09:26:01.201Z,51
2023-07-19T09:27:06.490Z,51
2023-07-19T09:28:11.520Z,51
2023-07-19T09:29:16.400Z,50
2023-07-19T09:30:21.291Z,51
2023-07-19T09:31:26.304Z,51
2023-07-19T09:32:31.567Z,50
2023-07-19T09:33:36.957Z,51
2023-07-19T09:34:43.031Z,50
2023-07-19T09:35:47.925Z,50
2023-07-19T09:36:53.780Z,50
2023-07-19T09:37:59.027Z,50
2023-07-19T09:39:04.273Z,50
2023-07-19T09:40:11.427Z,50
2023-07-19T09:41:16.346Z,51
2023-07-19T09:42:22.265Z,50
2023-07-19T09:43:27.194Z,50
2023-07-19T09:44:33.289Z,50
2023-07-19T09:45:38.423Z,50
2023-07-19T09:46:46.472Z,50
2023-07-19T09:47:58.397Z,50
2023-07-19T09:49:03.423Z,50
2023-07-19T09:50:09.342Z,50
2023-07-19T09:51:14.104Z,51
2023-07-19T09:52:22.086Z,51
2023-07-19T09:53:27.002Z,50
2023-07-19T09:54:31.867Z,48
2023-07-19T09:55:36.715Z,50
2023-07-19T09:56:42.831Z,50
2023-07-19T09:57:47.949Z,49
2023-07-19T09:58:55.872Z,50
2023-07-19T10:00:00.687Z,49
2023-07-19T10:01:05.477Z,49
2023-07-19T10:02:10.323Z,49
2023-07-19T10:03:18.211Z,49
2023-07-19T10:04:22.118Z,48
2023-07-19T10:05:35.139Z,48
2023-07-19T10:06:40.114Z,49
2023-07-19T10:07:51.326Z,47
2023-07-19T10:08:49.585Z,47
2023-07-19T10:09:54.469Z,48
2023-07-19T10:11:04.902Z,48
2023-07-19T10:12:09.746Z,48
2023-07-19T10:13:19.679Z,47
2023-07-19T10:14:33.458Z,47
2023-07-19T10:15:29.357Z,47
2023-07-19T10:16:34.334Z,47
2023-07-19T10:17:39.364Z,47
2023-07-19T10:18:49.106Z,46
2023-07-19T10:20:04.412Z,48
2023-07-19T10:21:15.637Z,48
2023-07-19T10:22:20.862Z,46
2023-07-19T10:23:25.724Z,46
2023-07-19T10:24:30.629Z,46
2023-07-19T10:25:36.665Z,47
2023-07-19T10:26:41.428Z,48
2023-07-19T10:27:46.654Z,47
2023-07-19T10:28:56.652Z,47
2023-07-19T10:30:04.290Z,44
2023-07-19T10:32:14.503Z,45
2023-07-19T10:33:22.500Z,45
2023-07-19T10:34:34.400Z,45
2023-07-19T10:35:32.360Z,44
2023-07-19T10:36:38.379Z,45
2023-07-19T10:37:52.177Z,44
2023-07-19T10:38:56.065Z,44
2023-07-19T10:40:01.176Z,44
2023-07-19T10:41:05.970Z,44
2023-07-19T10:42:10.777Z,44
2023-07-19T10:43:22.416Z,44
2023-07-19T10:44:22.611Z,42
2023-07-19T10:45:30.257Z,42
2023-07-19T10:46:34.947Z,42
2023-07-19T10:47:39.766Z,42
2023-07-19T10:48:44.748Z,42
2023-07-19T10:49:52.738Z,42
2023-07-19T10:50:57.779Z,40
2023-07-19T10:52:05.436Z,42
2023-07-19T10:53:10.680Z,41
2023-07-19T10:54:15.451Z,41
2023-07-19T10:55:38.633Z,41
2023-07-19T10:56:26.025Z,41
2023-07-19T10:57:30.816Z,41
2023-07-19T10:58:35.594Z,41
2023-07-19T10:59:40.442Z,41
2023-07-19T11:00:45.734Z,41
2023-07-19T11:01:50.586Z,41
2023-07-19T11:02:55.573Z,41
2023-07-19T11:04:00.388Z,41
2023-07-19T11:05:10.855Z,40
2023-07-19T11:06:15.718Z,40
2023-07-19T11:07:20.886Z,40
2023-07-19T11:08:25.757Z,41
2023-07-19T11:09:32.351Z,40
2023-07-19T11:10:37.950Z,40
2023-07-19T11:11:43.045Z,41
2023-07-19T11:12:47.993Z,39
2023-07-19T11:13:52.810Z,39
2023-07-19T11:14:57.570Z,39
2023-07-19T11:16:02.657Z,40
2023-07-19T11:17:07.637Z,40
2023-07-19T11:18:12.513Z,40
2023-07-19T11:19:17.524Z,40
2023-07-19T11:20:22.487Z,39
2023-07-19T11:21:32.306Z,40
2023-07-19T11:22:37.176Z,39
2023-07-19T11:23:41.937Z,39
2023-07-19T11:24:47.588Z,39
2023-07-19T11:25:55.746Z,38
2023-07-19T11:27:05.678Z,39
2023-07-19T11:28:14.747Z,39
2023-07-19T11:29:31.198Z,40
2023-07-19T11:30:39.767Z,40
2023-07-19T11:31:47.578Z,40
2023-07-19T11:32:52.368Z,40
2023-07-19T11:34:02.334Z,39
2023-07-19T11:35:19.214Z,39
2023-07-19T11:36:23.494Z,40
2023-07-19T11:37:31.080Z,40
2023-07-19T11:38:35.831Z,40
2023-07-19T11:39:40.569Z,40
2023-07-19T11:40:45.377Z,41
2023-07-19T11:41:50.254Z,41
2023-07-19T11:42:54.990Z,41
2023-07-19T11:43:59.809Z,42
2023-07-19T11:45:04.701Z,41
2023-07-19T11:46:15.340Z,42
2023-07-19T11:47:20.145Z,39
2023-07-19T11:48:26.395Z,39
2023-07-19T11:49:29.764Z,38
2023-07-19T11:50:34.458Z,38
2023-07-19T11:51:39.140Z,37
2023-07-19T11:52:43.938Z,38
2023-07-19T11:53:51.638Z,37
2023-07-19T11:54:56.740Z,37
2023-07-19T11:56:11.155Z,38
2023-07-19T11:57:07.694Z,37
2023-07-19T11:58:12.469Z,38
2023-07-19T11:59:18.222Z,38
2023-07-19T12:00:22.924Z,38
2023-07-19T12:01:27.947Z,39
2023-07-19T12:02:32.735Z,38
2023-07-19T12:03:37.550Z,38
2023-07-19T12:04:42.404Z,39
2023-07-19T12:05:47.301Z,40
2023-07-19T12:06:52.212Z,39
2023-07-19T12:07:57.118Z,39
2023-07-19T12:09:01.915Z,39
2023-07-19T12:10:06.704Z,38
2023-07-19T12:11:12.137Z,39
2023-07-19T12:12:17.051Z,39
2023-07-19T12:13:22.058Z,38
2023-07-19T12:14:28.981Z,39
2023-07-19T12:15:32.552Z,40
2023-07-19T12:16:37.534Z,40
2023-07-19T12:17:42.375Z,39
2023-07-19T12:18:47.920Z,39
2023-07-19T12:19:52.817Z,38
2023-07-19T12:20:57.917Z,38
2023-07-19T12:22:13.991Z,38
2023-07-19T12:23:07.843Z,39
2023-07-19T12:24:12.713Z,38
2023-07-19T12:25:19.111Z,39
2023-07-19T12:27:29.182Z,39
2023-07-19T12:28:33.916Z,39
2023-07-19T12:29:52.669Z,39
2023-07-19T12:30:44.715Z,38
2023-07-19T12:31:49.412Z,39
2023-07-19T12:32:54.448Z,40
2023-07-19T12:33:59.564Z,39
2023-07-19T12:35:07.745Z,38
2023-07-19T12:36:12.876Z,40
2023-07-19T12:37:17.584Z,40
2023-07-19T12:38:22.381Z,38
2023-07-19T12:39:27.171Z,38
2023-07-19T12:40:32.003Z,39
2023-07-19T12:41:38.911Z,39
2023-07-19T12:42:41.544Z,39
2023-07-19T12:43:46.217Z,39
2023-07-19T12:44:51.134Z,39
2023-07-19T12:45:56.181Z,39
2023-07-19T12:47:01.085Z,40
2023-07-19T12:48:05.920Z,40
2023-07-19T12:49:10.664Z,40
2023-07-19T12:50:15.353Z,39
2023-07-19T12:51:20.201Z,39
2023-07-19T12:52:26.364Z,38
2023-07-19T12:53:29.641Z,40
2023-07-19T12:54:34.502Z,39
2023-07-19T12:55:39.497Z,39
2023-07-19T12:56:44.427Z,38
2023-07-19T12:57:49.245Z,40
2023-07-19T12:58:53.993Z,39
2023-07-19T12:59:58.924Z,39
2023-07-19T13:01:03.920Z,39
2023-07-19T13:02:09.913Z,39
2023-07-19T13:03:14.928Z,40
2023-07-19T13:04:19.618Z,40
2023-07-19T13:05:24.460Z,39
2023-07-19T13:06:29.306Z,39
2023-07-19T13:07:34.166Z,40
2023-07-19T13:08:39.107Z,39
2023-07-19T13:09:44.066Z,40
2023-07-19T13:10:48.785Z,40
2023-07-19T13:11:53.575Z,39
2023-07-19T13:12:58.378Z,40
2023-07-19T13:14:03.153Z,40
2023-07-19T13:15:10.702Z,39
2023-07-19T13:16:15.732Z,39
2023-07-19T13:17:22.566Z,39
2023-07-19T13:18:26.279Z,41
2023-07-19T13:19:31.254Z,40
2023-07-19T13:20:36.234Z,41
2023-07-19T13:21:42.177Z,40
2023-07-19T13:22:48.557Z,40
2023-07-19T13:23:54.356Z,41
2023-07-19T13:24:58.514Z,40
2023-07-19T13:26:03.523Z,40
2023-07-19T13:27:08.217Z,41
2023-07-19T13:28:13.106Z,42
2023-07-19T13:29:19.169Z,42
2023-07-19T13:30:25.153Z,41
2023-07-19T13:31:29.318Z,41
2023-07-19T13:32:34.062Z,41
2023-07-19T13:33:38.727Z,41
2023-07-19T13:34:44.289Z,41
2023-07-19T13:36:55.232Z,42
2023-07-19T13:39:03.882Z,42
2023-07-19T13:40:09.843Z,41
2023-07-19T13:41:14.950Z,42
2023-07-19T13:42:19.970Z,41
2023-07-19T13:43:25.297Z,42
2023-07-19T13:44:30.242Z,42
2023-07-19T13:45:35.210Z,41
2023-07-19T13:46:39.968Z,41
2023-07-19T13:47:47.965Z,41
2023-07-19T13:48:53.035Z,40
2023-07-19T13:50:00.235Z,40
2023-07-19T13:51:07.398Z,40
2023-07-19T13:52:12.270Z,39
2023-07-19T13:53:17.089Z,39
2023-07-19T13:54:21.810Z,40
2023-07-19T13:55:26.501Z,40
2023-07-19T13:56:31.372Z,39
2023-07-19T13:57:36.346Z,39
2023-07-19T13:58:41.353Z,39
2023-07-19T13:59:46.186Z,38
2023-07-19T14:00:50.884Z,39
2023-07-19T14:01:55.724Z,39
2023-07-19T14:03:00.666Z,40
2023-07-19T14:04:05.517Z,39
2023-07-19T14:05:10.883Z,39
2023-07-19T14:06:15.492Z,39
2023-07-19T14:07:20.370Z,39
2023-07-19T14:08:25.055Z,39
2023-07-19T14:09:29.825Z,39
2023-07-19T14:10:34.637Z,39
2023-07-19T14:11:40.978Z,39
2023-07-19T14:12:45.359Z,39
2023-07-19T14:14:54.954Z,39
2023-07-19T14:17:04.460Z,39
2023-07-19T14:18:09.498Z,39
2023-07-19T14:19:17.055Z,39
2023-07-19T14:20:19.428Z,38
2023-07-19T14:21:24.296Z,38
2023-07-19T14:22:30.139Z,38
2023-07-19T14:23:35.035Z,39
2023-07-19T14:24:41.520Z,39
2023-07-19T14:25:45.701Z,39
2023-07-19T14:26:50.730Z,39
2023-07-19T14:27:56.483Z,39
2023-07-19T14:29:01.252Z,38
2023-07-19T14:30:06.232Z,38
2023-07-19T14:31:14.432Z,38
2023-07-19T14:32:17.933Z,38
2023-07-19T14:33:22.658Z,37
2023-07-19T14:34:27.401Z,37
2023-07-19T14:35:35.182Z,37
2023-07-19T14:36:40.092Z,38
2023-07-19T14:37:44.781Z,39
2023-07-19T14:38:49.487Z,39
2023-07-19T14:39:54.275Z,38
2023-07-19T14:41:00.125Z,38
2023-07-19T14:42:04.899Z,39
2023-07-19T14:43:09.864Z,38
2023-07-19T14:44:14.786Z,38
2023-07-19T14:45:19.682Z,38
2023-07-19T14:46:25.069Z,38
2023-07-19T14:47:29.303Z,39
2023-07-19T14:48:34.007Z,39
2023-07-19T14:49:39.771Z,39
2023-07-19T14:50:44.531Z,39
2023-07-19T14:51:49.468Z,39
2023-07-19T14:54:00.864Z,38
2023-07-19T14:55:05.646Z,38
2023-07-19T14:56:10.719Z,38
2023-07-19T14:57:15.443Z,38
2023-07-19T14:58:21.496Z,38
2023-07-19T14:59:26.370Z,38
2023-07-19T15:01:36.165Z,38
2023-07-19T15:02:41.035Z,38
2023-07-19T15:03:45.660Z,38
2023-07-19T15:04:50.434Z,38
2023-07-19T15:05:55.391Z,39
2023-07-19T15:07:03.752Z,38
2023-07-19T15:08:08.886Z,38
2023-07-19T15:09:13.857Z,37
2023-07-19T15:10:18.557Z,38
2023-07-19T15:11:23.486Z,37
2023-07-19T15:12:28.295Z,37
2023-07-19T15:13:33.137Z,37
2023-07-19T15:14:37.927Z,37
2023-07-19T15:15:46.094Z,36
2023-07-19T15:16:47.817Z,36
2023-07-19T15:17:52.660Z,37
2023-07-19T15:18:57.660Z,38
2023-07-19T15:20:02.545Z,38
2023-07-19T15:21:08.208Z,37
2023-07-19T15:22:13.197Z,36
2023-07-19T15:23:19.669Z,37
2023-07-19T15:24:23.515Z,36
2023-07-19T15:25:29.691Z,36
2023-07-19T15:26:35.067Z,36
2023-07-19T15:27:39.212Z,35
2023-07-19T15:28:45.097Z,36
2023-07-19T15:29:49.897Z,37
2023-07-19T15:30:54.820Z,37
2023-07-19T15:31:59.986Z,36
2023-07-19T15:33:04.919Z,37
2023-07-19T15:34:09.725Z,36
2023-07-19T15:35:16.058Z,37
2023-07-19T15:36:24.468Z,38
2023-07-19T15:37:30.496Z,36
2023-07-19T15:38:35.362Z,37
2023-07-19T15:39:40.549Z,36